Time;durP1;ratioP1;P1;durP2;ratioP2;P2;SDS_P1;SDS_P2;PMS_P1;PMS_P2;Temp;Humidity;BMP_temperature;BMP_pressure;BME280_temperature;BME280_humidity;BME280_pressure;Samples;Min_cycle;Max_cycle;Signal;HPM_P1;HPM_P2
2022/12/11 00:01:22;;;;;;;11.98;4.03;;;;;;;14.82;100.00;98239.63;5071156;28;20122;-30
2022/12/11 00:03:48;;;;;;;16.63;5.07;;;;;;;15.08;100.00;98244.59;5089385;28;20032;-31
2022/12/11 00:06:17;;;;;;;18.05;4.82;;;;;;;15.15;100.00;98239.63;5088393;28;20043;-29
2022/12/11 00:08:43;;;;;;;15.88;4.18;;;;;;;15.05;100.00;98226.38;5071514;28;20024;-32
2022/12/11 00:11:11;;;;;;;18.85;5.28;;;;;;;14.98;100.00;98242.06;5071566;28;20043;-33
2022/12/11 00:13:37;;;;;;;15.52;5.10;;;;;;;15.10;100.00;98231.69;5071338;28;20458;-29
2022/12/11 00:16:02;;;;;;;17.90;4.57;;;;;;;14.85;100.00;98220.25;5071050;28;20098;-29
2022/12/11 00:18:28;;;;;;;16.48;4.30;;;;;;;15.32;100.00;98240.97;5089699;28;20048;-33
2022/12/11 00:20:53;;;;;;;18.65;4.43;;;;;;;15.48;100.00;98236.94;5089740;28;20028;-29
2022/12/11 00:23:19;;;;;;;16.45;5.13;;;;;;;15.62;100.00;98232.38;5089528;28;20028;-34
2022/12/11 00:25:46;;;;;;;18.77;4.45;;;;;;;15.61;100.00;98228.13;5071108;28;20028;-28
2022/12/11 00:28:14;;;;;;;28.90;4.57;;;;;;;15.64;100.00;98208.69;5071233;28;20067;-33
2022/12/11 00:30:43;;;;;;;;;;;;;;;15.62;100.00;98194.75;5090130;28;20028;-28
2022/12/11 00:33:09;;;;;;;14.60;5.22;;;;;;;15.49;100.00;98157.97;5071306;28;19916;-30
2022/12/11 00:35:43;;;;;;;24.65;5.38;;;;;;;15.38;100.00;98122.41;5089466;28;20160;-31
2022/12/11 00:38:15;;;;;;;23.90;5.53;;;;;;;15.37;100.00;98138.84;5071141;28;20035;-30
2022/12/11 00:40:40;;;;;;;13.57;4.40;;;;;;;15.30;100.00;98119.63;5070869;28;20036;-32
2022/12/11 00:43:06;;;;;;;13.63;3.97;;;;;;;15.23;100.00;98088.59;5089203;28;20024;-29
2022/12/11 00:45:36;;;;;;;15.90;4.00;;;;;;;15.42;100.00;98119.94;5089300;28;20032;-31
2022/12/11 00:48:01;;;;;;;17.83;4.30;;;;;;;15.30;100.00;98100.84;5070726;28;20491;-30
2022/12/11 00:50:27;;;;;;;26.10;4.45;;;;;;;15.49;100.00;98109.59;5088996;28;20032;-30
2022/12/11 00:52:52;;;;;;;15.27;4.30;;;;;;;15.47;100.00;98096.47;5089019;28;20499;-34
2022/12/11 00:55:17;;;;;;;12.70;3.63;;;;;;;15.29;100.00;98083.16;5088800;28;20414;-35
2022/12/11 00:57:43;;;;;;;17.77;4.15;;;;;;;15.41;100.00;98088.81;5088536;28;20777;-32
2022/12/11 01:00:09;;;;;;;18.98;4.45;;;;;;;15.36;100.00;98084.31;5088884;28;20031;-30
2022/12/11 01:02:34;;;;;;;19.50;4.85;;;;;;;15.41;100.00;98075.38;5070543;28;20028;-30
2022/12/11 01:05:00;;;;;;;21.77;4.75;;;;;;;15.44;100.00;98080.16;5088903;28;20105;-29
2022/12/11 01:07:25;;;;;;;15.15;3.80;;;;;;;15.51;100.00;98102.03;5088830;28;20030;-30
2022/12/11 01:12:35;;;;;;;23.65;4.38;;;;;;;15.48;100.00;98087.28;5089010;28;20065;-29
2022/12/11 01:15:00;;;;;;;22.50;4.45;;;;;;;15.59;100.00;98093.28;5070430;28;20032;-30
2022/12/11 01:17:26;;;;;;;14.43;4.65;;;;;;;15.54;100.00;98092.59;5088223;28;20122;-29
2022/12/11 01:19:54;;;;;;;14.13;3.45;;;;;;;15.50;100.00;98096.97;5088456;28;20024;-29
2022/12/11 01:22:20;;;;;;;15.18;3.63;;;;;;;15.40;100.00;98058.44;5088342;28;20024;-29
2022/12/11 01:24:45;;;;;;;19.33;3.53;;;;;;;15.51;100.00;98085.09;5087949;28;20077;-31
2022/12/11 01:27:11;;;;;;;17.15;3.88;;;;;;;15.52;100.00;98082.13;5088225;28;20077;-28
2022/12/11 01:29:36;;;;;;;19.00;4.72;;;;;;;15.54;100.00;98069.19;5069961;28;20089;-36
2022/12/11 01:32:01;;;;;;;20.70;4.40;;;;;;;15.59;100.00;98095.97;5088147;28;20571;-30
2022/12/11 01:34:31;;;;;;;16.02;2.92;;;;;;;15.70;100.00;98111.88;5088032;28;20034;-28
2022/12/11 01:36:56;;;;;;;10.93;2.60;;;;;;;15.77;100.00;98093.47;5088273;28;20042;-31
2022/12/11 01:39:22;;;;;;;9.05;2.58;;;;;;;15.86;100.00;98072.88;5087595;28;20020;-29
2022/12/11 01:41:47;;;;;;;10.60;2.33;;;;;;;15.93;100.00;98085.88;5087750;28;20040;-29
2022/12/11 01:44:13;;;;;;;8.65;2.10;;;;;;;15.78;100.00;98066.31;5087831;28;20077;-29
2022/12/11 01:46:38;;;;;;;10.70;2.30;;;;;;;15.91;100.00;98072.75;5087800;28;20038;-29
2022/12/11 01:49:08;;;;;;;6.53;2.03;;;;;;;15.91;100.00;98064.69;5088024;28;20055;-29
2022/12/11 01:51:40;;;;;;;9.40;2.63;;;;;;;15.83;100.00;98060.84;5069148;28;20468;-31
2022/12/11 01:54:09;;;;;;;6.03;1.80;;;;;;;16.04;99.02;98065.75;5069882;28;20066;-29
2022/12/11 01:56:36;;;;;;;8.50;2.30;;;;;;;16.08;98.78;98074.81;5069398;28;20093;-29
2022/12/11 01:59:06;;;;;;;9.27;2.42;;;;;;;16.01;98.17;98039.47;5087663;28;20024;-28
2022/12/11 02:01:59;;;;;;;10.18;2.80;;;;;;;16.16;97.86;98041.00;5069041;28;20047;-30
2022/12/11 02:04:25;;;;;;;6.85;2.25;;;;;;;16.10;97.98;98042.22;5084356;28;20032;-29
2022/12/11 02:06:52;;;;;;;7.47;1.95;;;;;;;16.12;97.53;98029.25;5087664;28;20043;-31
2022/12/11 02:09:31;;;;;;;11.43;2.35;;;;;;;16.02;97.91;98014.97;5087462;28;20028;-30
2022/12/11 02:12:42;;;;;;;10.80;2.70;;;;;;;16.07;97.88;98028.28;5068820;28;20439;-31
2022/12/11 02:15:31;;;;;;;6.97;1.80;;;;;;;16.14;97.21;98025.19;5053783;28;20127;-29
2022/12/11 02:18:12;;;;;;;11.48;2.10;;;;;;;16.07;97.48;98006.78;5087203;28;20044;-29
2022/12/11 02:20:49;;;;;;;4.68;1.88;;;;;;;16.05;98.04;97998.22;5069018;28;20036;-32
2022/12/11 02:23:35;;;;;;;10.15;3.50;;;;;;;16.10;97.61;97972.31;5068990;28;20084;-29
2022/12/11 02:26:04;;;;;;;9.57;2.08;;;;;;;16.20;96.44;97953.22;5087306;28;20551;-35
2022/12/11 02:28:33;;;;;;;;;;;;;;;16.30;96.08;97963.72;5087248;28;20088;-34
2022/12/11 02:31:09;;;;;;;6.30;2.28;;;;;;;16.13;96.57;97907.19;5087237;28;19998;-32
2022/12/11 02:34:04;;;;;;;14.10;1.75;;;;;;;16.17;96.96;97897.38;5069056;28;20032;-33
2022/12/11 02:36:36;;;;;;;13.93;2.83;;;;;;;16.05;97.52;97885.28;5075818;28;20043;-30
2022/12/11 02:39:06;;;;;;;9.20;2.05;;;;;;;16.27;96.50;97889.06;5087250;28;20024;-32
2022/12/11 02:41:32;;;;;;;6.10;2.05;;;;;;;16.16;96.49;97869.72;5068665;28;20081;-31
2022/12/11 02:44:01;;;;;;;11.35;2.58;;;;;;;16.36;96.11;97897.94;5068635;28;20599;-28
2022/12/11 02:46:28;;;;;;;10.90;2.33;;;;;;;16.53;93.98;97894.56;5068614;28;20411;-29
2022/12/11 02:48:55;;;;;;;7.40;2.00;;;;;;;16.56;93.62;97895.81;5068942;28;20028;-29
2022/12/11 02:51:25;;;;;;;10.50;1.87;;;;;;;16.48;93.90;97894.66;5087015;28;20464;-29
2022/12/11 02:53:55;;;;;;;7.93;1.38;;;;;;;16.57;94.23;97900.06;5068317;28;20123;-29
2022/12/11 02:56:29;;;;;;;7.63;1.20;;;;;;;16.60;93.13;97899.47;5086822;28;20068;-28
2022/12/11 02:59:00;;;;;;;5.80;1.23;;;;;;;16.56;93.63;97876.97;5068632;28;20081;-30
2022/12/11 03:01:26;;;;;;;7.63;2.72;;;;;;;16.59;93.29;97893.31;5068699;28;20027;-31
2022/12/11 03:03:53;;;;;;;8.73;1.80;;;;;;;16.66;92.68;97888.25;5068320;28;20077;-29
2022/12/11 03:06:23;;;;;;;6.25;1.38;;;;;;;16.64;93.23;97879.69;5068553;28;20039;-32
2022/12/11 03:08:50;;;;;;;4.63;1.50;;;;;;;16.54;93.65;97876.50;5051856;28;20431;-31
2022/12/11 03:11:16;;;;;;;5.60;1.13;;;;;;;16.67;92.11;97862.13;5087242;28;20024;-29
2022/12/11 03:13:43;;;;;;;9.65;1.40;;;;;;;16.73;92.42;97876.22;5068416;28;20036;-34
2022/12/11 03:16:29;;;;;;;5.05;1.40;;;;;;;16.70;92.12;97866.09;5068658;28;20032;-31
2022/12/11 03:19:13;;;;;;;4.50;1.08;;;;;;;16.85;90.70;97863.78;5068227;28;20173;-31
2022/12/11 03:21:52;;;;;;;4.72;1.10;;;;;;;16.89;89.74;97842.41;5068437;28;20111;-31
2022/12/11 03:24:29;;;;;;;6.63;1.30;;;;;;;17.05;88.20;97854.31;5068610;28;20123;-31
2022/12/11 03:27:01;;;;;;;5.68;1.63;;;;;;;17.18;87.41;97847.22;5068217;28;20031;-31
2022/12/11 03:29:41;;;;;;;4.95;1.25;;;;;;;17.05;87.28;97813.13;5068330;28;20118;-30
2022/12/11 03:32:18;;;;;;;2.78;0.90;;;;;;;17.14;86.74;97816.63;5068223;28;20028;-33
2022/12/11 03:34:53;;;;;;;5.05;0.98;;;;;;;17.10;87.94;97839.91;5086771;28;20028;-29
2022/12/11 03:37:20;;;;;;;4.00;0.93;;;;;;;17.05;88.18;97845.44;5086619;28;20036;-32
2022/12/11 03:39:50;;;;;;;4.10;0.98;;;;;;;17.09;86.96;97842.91;5068275;28;20031;-31
2022/12/11 03:42:19;;;;;;;4.55;1.27;;;;;;;17.21;86.20;97841.19;5071734;28;20036;-37
2022/12/11 03:44:48;;;;;;;6.32;1.20;;;;;;;17.27;85.74;97883.00;5072106;28;20020;-29
2022/12/11 03:47:18;;;;;;;6.68;1.42;;;;;;;17.35;85.10;97880.66;5090186;28;20064;-32
2022/12/11 03:49:44;;;;;;;4.32;0.93;;;;;;;17.25;84.96;97882.53;5071898;28;20032;-31
2022/12/11 03:52:12;;;;;;;5.07;1.33;;;;;;;17.21;85.64;97892.34;5090496;28;20110;-29
2022/12/11 03:54:40;;;;;;;5.53;1.10;;;;;;;17.19;86.54;97894.56;5090004;28;20556;-29
2022/12/11 03:57:08;;;;;;;3.17;0.77;;;;;;;16.84;88.56;97878.34;5089925;28;20024;-36
2022/12/11 03:59:33;;;;;;;5.00;1.52;;;;;;;16.69;88.65;97876.06;5071932;28;20028;-31
2022/12/11 04:01:59;;;;;;;3.15;0.98;;;;;;;16.82;88.27;97895.94;5089751;28;20510;-31
2022/12/11 04:04:24;;;;;;;5.15;1.30;;;;;;;16.72;88.11;97867.38;5089857;28;20403;-32
2022/12/11 04:06:50;;;;;;;4.88;1.20;;;;;;;16.90;85.61;97864.72;5089605;28;20024;-30
2022/12/11 04:09:15;;;;;;;4.68;1.45;;;;;;;17.02;85.86;97883.75;5071232;28;20476;-29
2022/12/11 04:11:41;;;;;;;6.15;1.40;;;;;;;16.94;85.49;97868.38;5071087;28;20510;-29
2022/12/11 04:16:58;;;;;;;4.28;0.68;;;;;;;16.89;85.35;97884.69;5089847;28;20798;-29
2022/12/11 04:24:56;;;;;;;5.30;0.90;;;;;;;16.72;86.06;97896.97;5089659;28;20514;-29
2022/12/11 04:30:10;;;;;;;4.68;0.80;;;;;;;16.79;86.49;97896.50;5089758;28;20077;-31
2022/12/11 04:32:36;;;;;;;3.97;0.90;;;;;;;16.89;86.12;97919.69;5089190;28;20454;-29
2022/12/11 04:35:01;;;;;;;3.80;1.05;;;;;;;16.66;88.38;97934.00;5089343;28;20069;-29
2022/12/11 04:37:27;;;;;;;5.00;1.80;;;;;;;16.46;88.13;97911.13;5089485;28;20063;-28
2022/12/11 04:39:52;;;;;;;3.97;1.13;;;;;;;16.32;87.94;97894.28;5089057;28;20084;-32
2022/12/11 04:42:18;;;;;;;2.70;1.15;;;;;;;16.50;87.95;97916.69;5089230;28;20055;-30
2022/12/11 04:44:43;;;;;;;8.13;6.05;;;;;;;16.33;88.43;97922.00;5088736;28;20028;-28
2022/12/11 04:47:09;;;;;;;9.75;4.13;;;;;;;15.66;91.75;97921.69;5089565;28;20551;-29
2022/12/11 04:49:34;;;;;;;5.28;2.17;;;;;;;15.30;93.62;97915.53;5088920;28;20566;-30
2022/12/11 04:51:59;;;;;;;3.53;1.90;;;;;;;15.45;93.38;97942.88;5088264;28;20408;-31
2022/12/11 04:54:25;;;;;;;24.52;15.70;;;;;;;15.67;92.63;97930.53;5088958;28;20462;-28
2022/12/11 04:56:50;;;;;;;18.85;13.13;;;;;;;15.85;91.68;97934.19;5070549;28;20035;-30
2022/12/11 04:59:16;;;;;;;4.05;1.70;;;;;;;15.82;91.33;97929.44;5088757;28;20016;-30
2022/12/11 05:01:41;;;;;;;13.52;6.72;;;;;;;15.71;92.33;97938.78;5088892;28;20110;-33
2022/12/11 05:04:07;;;;;;;12.55;5.20;;;;;;;15.66;91.53;97937.81;5088946;28;20020;-30
2022/12/11 05:06:32;;;;;;;93.65;53.67;;;;;;;15.77;91.45;97933.03;5088654;28;20067;-30
2022/12/11 05:08:57;;;;;;;94.80;52.28;;;;;;;16.01;90.37;97954.22;5088606;28;20035;-28
2022/12/11 05:11:23;;;;;;;41.28;22.42;;;;;;;16.14;89.79;97968.72;5070360;28;20472;-30
2022/12/11 05:13:48;;;;;;;12.27;6.38;;;;;;;16.19;89.10;97975.84;5069874;28;20800;-29
2022/12/11 05:16:15;;;;;;;9.07;2.85;;;;;;;16.12;88.83;97975.47;5088208;28;20036;-29
2022/12/11 05:18:41;;;;;;;7.88;2.45;;;;;;;15.90;88.72;97969.03;5088832;28;20591;-31
2022/12/11 05:21:09;;;;;;;4.45;1.58;;;;;;;16.11;87.31;97968.53;5088397;28;20132;-30
2022/12/11 05:23:35;;;;;;;48.53;25.50;;;;;;;16.13;87.73;97960.94;5069982;28;20071;-30
2022/12/11 05:26:07;;;;;;;9.65;4.80;;;;;;;15.94;89.63;97986.13;5088002;28;20070;-31
2022/12/11 05:28:35;;;;;;;8.88;4.13;;;;;;;15.87;90.17;97980.38;5088244;28;20589;-28
2022/12/11 05:31:04;;;;;;;40.92;33.67;;;;;;;15.98;89.42;97976.34;5069929;28;20038;-32
2022/12/11 05:33:30;;;;;;;43.13;35.45;;;;;;;16.07;89.22;97984.47;5069702;28;20032;-28
2022/12/11 05:35:55;;;;;;;12.10;4.85;;;;;;;15.81;91.12;97986.97;5088004;28;20043;-29
2022/12/11 05:38:22;;;;;;;7.07;3.40;;;;;;;15.81;91.22;97992.34;5088257;28;20034;-33
2022/12/11 05:41:07;;;;;;;16.88;9.68;;;;;;;15.93;90.55;98000.66;5087942;28;20024;-30
2022/12/11 05:43:35;;;;;;;26.13;11.02;;;;;;;15.79;91.39;97989.16;5087496;28;20048;-30
2022/12/11 05:46:24;;;;;;;9.68;3.38;;;;;;;15.75;90.75;98002.44;5069354;28;20108;-29
2022/12/11 05:48:53;;;;;;;7.25;2.70;;;;;;;15.42;92.55;98005.22;5069551;28;20101;-28
2022/12/11 05:51:19;;;;;;;9.60;3.45;;;;;;;15.19;93.57;98014.31;5069343;28;20116;-32
2022/12/11 05:53:46;;;;;;;13.20;7.50;;;;;;;15.27;92.85;98021.66;5087576;28;20032;-28
2022/12/11 05:56:17;;;;;;;10.30;5.68;;;;;;;15.15;92.81;98022.16;5087813;28;20427;-29
2022/12/11 05:58:43;;;;;;;12.32;5.20;;;;;;;15.00;93.49;98022.47;5069339;28;20092;-32
2022/12/11 06:01:18;;;;;;;9.63;3.70;;;;;;;14.77;94.56;98022.38;5087713;28;20038;-28
2022/12/11 06:03:44;;;;;;;8.75;3.65;;;;;;;14.82;94.29;98034.88;5068951;28;20597;-29
2022/12/11 06:06:10;;;;;;;7.10;2.50;;;;;;;14.80;94.67;98040.53;5069508;28;20215;-29
2022/12/11 06:08:35;;;;;;;7.65;2.90;;;;;;;14.85;94.34;98053.06;5087564;28;20032;-29
2022/12/11 06:11:01;;;;;;;11.40;6.40;;;;;;;14.13;97.91;98054.22;5069420;28;20134;-28
2022/12/11 06:13:27;;;;;;;15.45;10.35;;;;;;;14.10;100.00;98070.88;5087354;28;20035;-31
2022/12/11 06:15:52;;;;;;;10.73;5.80;;;;;;;14.22;99.89;98068.56;5087102;28;20039;-30
2022/12/11 06:18:18;;;;;;;10.93;6.25;;;;;;;14.40;98.65;98063.44;5065608;28;20056;-30
2022/12/11 06:20:43;;;;;;;30.08;17.33;;;;;;;14.51;98.28;98064.09;5066978;28;20412;-28
2022/12/11 06:23:09;;;;;;;23.92;14.35;;;;;;;14.59;97.34;98071.50;5067226;28;20465;-29
2022/12/11 06:25:38;;;;;;;26.60;16.80;;;;;;;14.53;98.09;98075.34;5065709;28;20028;-28
2022/12/11 06:28:03;;;;;;;23.45;14.75;;;;;;;14.52;98.58;98084.47;5067209;28;20064;-29
2022/12/11 06:30:29;;;;;;;19.77;11.48;;;;;;;14.66;98.17;98099.53;5067040;28;20055;-29
2022/12/11 06:32:54;;;;;;;27.17;15.82;;;;;;;14.62;98.60;98084.31;5066981;28;20043;-31
2022/12/11 06:35:20;;;;;;;28.25;16.90;;;;;;;14.73;97.99;98069.66;5067264;28;20025;-31
2022/12/11 06:37:46;;;;;;;24.23;13.05;;;;;;;14.85;97.93;98088.75;5067126;28;20529;-30
2022/12/11 06:40:11;;;;;;;31.15;22.27;;;;;;;15.01;97.16;98083.09;5067183;28;20032;-32
2022/12/11 06:42:37;;;;;;;119.70;106.88;;;;;;;15.11;97.00;98077.56;5067131;28;20055;-29
2022/12/11 06:45:03;;;;;;;51.35;45.13;;;;;;;15.01;97.34;98075.84;5067155;28;20061;-30
2022/12/11 06:47:29;;;;;;;26.85;18.92;;;;;;;14.96;97.64;98075.16;5065428;28;20039;-29
2022/12/11 06:49:55;;;;;;;30.52;18.08;;;;;;;15.12;96.39;98079.16;5066718;28;20452;-33
2022/12/11 06:52:22;;;;;;;42.05;24.40;;;;;;;15.43;94.17;98073.19;5056645;28;20032;-31
2022/12/11 06:54:47;;;;;;;40.25;22.40;;;;;;;14.96;96.19;98062.53;5053979;28;20554;-29
2022/12/11 06:57:14;;;;;;;24.70;16.35;;;;;;;14.84;97.27;98079.09;5056939;28;20036;-33
2022/12/11 06:59:39;;;;;;;25.30;15.70;;;;;;;14.93;97.51;98081.09;5055989;28;20091;-31
2022/12/11 07:02:04;;;;;;;23.08;14.00;;;;;;;14.89;97.76;98075.53;5055507;28;20029;-30
2022/12/11 07:04:30;;;;;;;31.75;17.00;;;;;;;15.01;97.62;98086.59;5057133;28;20025;-29
2022/12/11 07:06:56;;;;;;;16.40;6.43;;;;;;;14.83;96.48;98061.44;5055817;28;20029;-29
2022/12/11 07:09:22;;;;;;;14.75;9.57;;;;;;;14.93;96.71;98092.63;5054622;28;20086;-30
2022/12/11 07:11:51;;;;;;;12.93;6.05;;;;;;;15.07;96.23;98084.59;5056897;28;20025;-29
2022/12/11 07:14:17;;;;;;;11.02;5.05;;;;;;;15.13;96.07;98085.31;5047744;28;20029;-30
2022/12/11 07:16:42;;;;;;;11.90;5.18;;;;;;;15.12;95.70;98095.25;5049575;28;20043;-29
2022/12/11 07:19:08;;;;;;;12.63;5.32;;;;;;;15.10;95.38;98102.00;5090885;28;20093;-29
2022/12/11 07:21:34;;;;;;;24.08;18.42;;;;;;;15.12;95.46;98089.06;5091009;28;20032;-33
2022/12/11 07:23:59;;;;;;;12.38;4.40;;;;;;;15.23;94.81;98069.00;5090540;28;20032;-28
2022/12/11 07:26:25;;;;;;;9.88;4.78;;;;;;;15.38;94.50;98086.72;5090453;28;20085;-28
2022/12/11 07:28:50;;;;;;;11.57;6.65;;;;;;;15.49;93.96;98104.22;5090574;28;20499;-29
2022/12/11 07:31:19;;;;;;;15.18;6.90;;;;;;;15.62;94.20;98114.16;5071941;28;20043;-31
2022/12/11 07:33:45;;;;;;;12.40;6.60;;;;;;;15.57;94.54;98108.91;5071662;28;20024;-32
2022/12/11 07:36:12;;;;;;;13.40;7.40;;;;;;;15.64;94.18;98119.25;5090377;28;20024;-34
2022/12/11 07:38:38;;;;;;;12.43;8.30;;;;;;;15.88;93.96;98137.88;5090779;28;20031;-32
2022/12/11 07:41:06;;;;;;;19.67;9.63;;;;;;;15.98;94.28;98137.66;5090232;28;20055;-31
2022/12/11 07:43:33;;;;;;;22.15;14.43;;;;;;;16.11;93.52;98133.34;5071791;28;20040;-30
2022/12/11 07:46:14;;;;;;;23.75;16.42;;;;;;;16.39;92.58;98130.59;5089846;28;20777;-28
2022/12/11 07:48:43;;;;;;;13.60;8.18;;;;;;;16.25;93.16;98117.16;5090068;28;20404;-32
2022/12/11 07:51:28;;;;;;;17.35;11.23;;;;;;;16.31;93.28;98115.97;5090041;28;20055;-28
2022/12/11 07:53:59;;;;;;;21.65;11.75;;;;;;;16.56;94.10;98146.06;5071621;28;20036;-30
2022/12/11 07:56:26;;;;;;;14.90;8.00;;;;;;;16.52;94.04;98135.09;5089792;28;20024;-29
2022/12/11 07:58:52;;;;;;;15.63;8.07;;;;;;;16.50;93.87;98125.75;5071840;28;20024;-29
2022/12/11 08:01:23;;;;;;;12.70;5.55;;;;;;;16.71;93.19;98117.97;5090004;28;20028;-31
2022/12/11 08:03:49;;;;;;;8.85;4.80;;;;;;;16.81;92.60;98125.81;5071853;28;20434;-29
2022/12/11 08:06:15;;;;;;;10.77;4.85;;;;;;;16.97;92.69;98123.56;5089834;28;20047;-30
2022/12/11 08:08:41;;;;;;;20.38;9.43;;;;;;;17.12;90.63;98125.88;5089909;28;20515;-30
2022/12/11 08:11:09;;;;;;;24.60;11.30;;;;;;;17.06;90.41;98113.59;5090047;28;20051;-30
2022/12/11 08:13:36;;;;;;;15.57;7.88;;;;;;;17.14;89.58;98112.06;5089527;28;20547;-32
2022/12/11 08:16:07;;;;;;;21.25;10.95;;;;;;;17.62;87.74;98130.97;5071167;28;20043;-31
2022/12/11 08:18:34;;;;;;;26.65;12.50;;;;;;;17.64;86.57;98123.38;5070627;28;20052;-29
2022/12/11 08:21:24;;;;;;;61.25;31.05;;;;;;;17.86;86.42;98135.19;5071393;28;20025;-32
2022/12/11 08:23:51;;;;;;;19.55;9.80;;;;;;;17.55;87.24;98110.97;5088999;28;20043;-32
2022/12/11 08:26:20;;;;;;;16.98;8.93;;;;;;;17.42;88.08;98101.91;5088729;28;20028;-29
2022/12/11 08:28:46;;;;;;;13.93;7.80;;;;;;;17.46;88.23;98097.47;5070616;28;20035;-29
2022/12/11 08:31:13;;;;;;;15.10;7.88;;;;;;;17.75;87.32;98104.19;5089526;28;20020;-28
2022/12/11 08:33:40;;;;;;;17.20;6.65;;;;;;;17.98;86.98;98107.59;5089104;28;20036;-38
2022/12/11 08:36:08;;;;;;;16.90;7.68;;;;;;;18.25;86.15;98114.63;5089532;28;20039;-28
2022/12/11 08:38:34;;;;;;;42.35;10.85;;;;;;;18.66;84.94;98105.22;5071014;28;20059;-28
2022/12/11 08:41:17;;;;;;;27.88;13.48;;;;;;;19.15;82.63;98110.38;5089447;28;20036;-31
2022/12/11 08:43:43;;;;;;;24.35;12.63;;;;;;;19.25;80.67;98116.22;5089386;28;20027;-30
2022/12/11 08:46:09;;;;;;;50.75;29.20;;;;;;;19.37;81.19;98118.25;5070678;28;20024;-30
2022/12/11 08:48:36;;;;;;;50.05;45.25;;;;;;;19.62;80.16;98118.44;5070805;28;20028;-28
2022/12/11 08:51:05;;;;;;;27.05;15.45;;;;;;;19.89;78.85;98127.25;5070985;28;20031;-29
2022/12/11 08:53:31;;;;;;;40.63;20.70;;;;;;;19.83;77.79;98140.16;5089348;28;20032;-31
2022/12/11 08:56:05;;;;;;;27.75;13.98;;;;;;;20.12;76.30;98157.47;5070596;28;20082;-30
2022/12/11 08:58:31;;;;;;;22.80;12.55;;;;;;;20.36;76.36;98130.56;5089118;28;20040;-31
2022/12/11 09:00:57;;;;;;;23.13;16.20;;;;;;;20.69;74.88;98131.75;5070211;28;20446;-32
2022/12/11 09:03:24;;;;;;;14.90;9.00;;;;;;;21.05;73.29;98142.69;5070568;28;20028;-28
2022/12/11 09:05:50;;;;;;;10.48;7.60;;;;;;;21.08;71.28;98133.09;5053597;28;20123;-30
2022/12/11 09:08:15;;;;;;;12.95;5.07;;;;;;;21.50;70.37;98111.28;5070406;28;20130;-30
2022/12/11 09:10:40;;;;;;;10.82;5.70;;;;;;;21.63;69.83;98114.78;5088408;28;20102;-30
2022/12/11 09:13:06;;;;;;;15.43;6.20;;;;;;;21.70;69.94;98117.72;5070216;28;20039;-31
2022/12/11 09:15:32;;;;;;;10.57;4.72;;;;;;;21.36;69.83;98118.91;5088163;28;20021;-29
2022/12/11 09:17:57;;;;;;;10.82;4.63;;;;;;;21.56;71.05;98117.28;5066503;28;20048;-30
2022/12/11 09:20:22;;;;;;;19.73;11.18;;;;;;;22.01;68.44;98133.41;5068210;28;20471;-32
2022/12/11 09:22:48;;;;;;;28.08;17.55;;;;;;;21.38;70.02;98108.53;5068319;28;20028;-29
2022/12/11 09:25:13;;;;;;;59.75;21.88;;;;;;;20.94;71.87;98106.31;5068320;28;20021;-30
2022/12/11 09:27:39;;;;;;;58.00;38.53;;;;;;;20.72;73.41;98104.81;5067801;28;20461;-28
2022/12/11 09:30:05;;;;;;;85.28;54.65;;;;;;;20.76;71.82;98115.72;5066541;28;20493;-31
2022/12/11 09:32:30;;;;;;;41.80;30.75;;;;;;;20.56;72.67;98091.06;5066741;28;20508;-29
2022/12/11 09:34:56;;;;;;;36.70;24.40;;;;;;;20.47;72.92;98099.25;5068578;28;20028;-30
2022/12/11 09:37:21;;;;;;;40.58;27.10;;;;;;;20.40;73.95;98107.13;5066623;28;20059;-31
2022/12/11 09:39:47;;;;;;;18.98;7.38;;;;;;;20.48;70.33;98090.00;5067637;28;20537;-30
2022/12/11 09:42:48;;;;;;;15.85;8.25;;;;;;;20.36;71.75;98081.84;5067735;28;20104;-32
2022/12/11 09:45:15;;;;;;;40.63;29.63;;;;;;;20.17;73.70;98051.75;5067852;28;20062;-34
2022/12/11 09:47:44;;;;;;;28.13;19.77;;;;;;;20.48;71.94;98068.34;5065888;28;20031;-33
2022/12/11 09:50:10;;;;;;;28.15;17.60;;;;;;;20.40;73.04;98061.09;5066314;28;20032;-31
2022/12/11 09:53:04;;;;;;;29.63;17.63;;;;;;;20.23;73.46;98058.56;5067499;28;20035;-30
2022/12/11 09:55:59;;;;;;;24.05;10.65;;;;;;;20.30;72.08;98042.56;5065062;28;20044;-30
2022/12/11 09:58:33;;;;;;;20.92;12.50;;;;;;;20.19;73.92;98061.13;5066233;28;20029;-29
2022/12/11 10:01:08;;;;;;;53.13;36.10;;;;;;;20.08;74.80;98059.94;5067395;28;20032;-29
2022/12/11 10:03:43;;;;;;;39.22;14.18;;;;;;;19.93;76.13;98064.03;5067604;28;20024;-31
2022/12/11 10:06:14;;;;;;;60.47;40.55;;;;;;;19.95;73.66;98067.19;5067392;28;20033;-29
2022/12/11 10:08:58;;;;;;;13.40;4.88;;;;;;;20.26;67.99;98061.38;5067519;28;20028;-28
2022/12/11 10:11:45;;;;;;;29.60;15.93;;;;;;;20.16;68.96;98066.41;5067298;28;20143;-31
2022/12/11 10:15:04;;;;;;;37.93;25.30;;;;;;;20.33;70.54;98063.56;5067456;28;20024;-30
2022/12/11 10:17:33;;;;;;;29.55;18.10;;;;;;;20.52;66.41;98062.28;4985357;28;20325;-29
2022/12/11 10:20:10;;;;;;;15.35;6.97;;;;;;;20.21;70.62;98058.09;4985054;28;20038;-31
2022/12/11 10:22:35;;;;;;;11.30;6.15;;;;;;;19.75;72.35;98057.16;5038965;28;20504;-31
2022/12/11 10:25:17;;;;;;;11.13;3.53;;;;;;;19.53;74.33;98056.28;5067531;28;20028;-29
2022/12/11 10:27:43;;;;;;;12.38;3.88;;;;;;;19.31;72.79;98043.06;5066967;28;20028;-29
2022/12/11 10:30:13;;;;;;;10.18;2.72;;;;;;;19.73;71.52;98064.81;5065684;28;20037;-31
2022/12/11 10:32:58;;;;;;;7.68;2.80;;;;;;;19.74;70.66;98066.41;5067247;28;20094;-31
2022/12/11 10:35:36;;;;;;;6.82;2.55;;;;;;;19.82;71.03;98060.16;5035473;28;20041;-28
2022/12/11 10:38:19;;;;;;;6.75;2.47;;;;;;;19.85;71.88;98062.19;5065380;28;20115;-30
2022/12/11 10:40:49;;;;;;;9.88;2.50;;;;;;;20.17;71.52;98038.22;5065410;28;20052;-30
2022/12/11 10:43:15;;;;;;;8.00;2.38;;;;;;;20.44;69.59;98040.34;5066913;28;20028;-28
2022/12/11 10:45:51;;;;;;;8.35;2.47;;;;;;;20.41;68.85;98035.63;5065300;28;20051;-29
2022/12/11 10:48:16;;;;;;;15.40;2.97;;;;;;;20.20;69.34;98029.44;5066984;28;20037;-31
2022/12/11 10:50:54;;;;;;;9.27;2.55;;;;;;;20.06;70.86;98030.53;5066623;28;20020;-31
2022/12/11 10:53:20;;;;;;;7.82;2.17;;;;;;;20.17;70.73;98024.69;5066787;28;20024;-30
2022/12/11 10:55:47;;;;;;;10.15;2.67;;;;;;;19.67;73.39;97983.84;5066952;28;20039;-29
2022/12/11 10:58:32;;;;;;;7.13;2.05;;;;;;;19.64;73.08;98006.13;5065449;28;20025;-33
2022/12/11 11:01:07;;;;;;;9.57;2.08;;;;;;;19.54;71.92;98014.63;5066764;28;20035;-28
2022/12/11 11:03:35;;;;;;;7.20;2.85;;;;;;;19.41;73.18;98004.84;5065353;28;20500;-34
2022/12/11 11:06:05;;;;;;;8.30;2.45;;;;;;;19.31;73.90;97995.22;5064851;28;20033;-30
2022/12/11 11:08:55;;;;;;;9.75;2.55;;;;;;;19.44;74.19;98004.22;5065000;28;20040;-32
2022/12/11 11:11:35;;;;;;;11.80;2.28;;;;;;;19.42;74.59;98001.03;5066689;28;20036;-29
2022/12/11 11:14:16;;;;;;;6.32;1.58;;;;;;;19.76;73.21;97989.22;5065139;28;20048;-28
2022/12/11 11:16:45;;;;;;;12.10;2.72;;;;;;;19.91;72.53;97990.53;5066680;28;20036;-29
2022/12/11 11:19:31;;;;;;;7.88;2.13;;;;;;;19.92;72.15;97996.72;5066444;28;20048;-31
2022/12/11 11:22:19;;;;;;;10.32;2.40;;;;;;;19.88;72.61;98007.44;5066278;28;20055;-28
2022/12/11 11:24:53;;;;;;;9.43;1.88;;;;;;;20.14;71.16;97998.28;5066215;28;20040;-28
2022/12/11 11:27:21;;;;;;;7.45;2.20;;;;;;;20.89;69.15;98002.78;5066604;28;20025;-30
2022/12/11 11:29:52;;;;;;;8.02;2.00;;;;;;;20.92;68.41;98007.53;5066692;28;20036;-28
2022/12/11 11:32:38;;;;;;;8.20;2.42;;;;;;;20.83;67.15;98008.41;5066561;28;20033;-28
2022/12/11 11:35:12;;;;;;;7.80;1.73;;;;;;;20.79;68.16;98006.72;5064995;28;20029;-28
2022/12/11 11:37:45;;;;;;;8.45;3.38;;;;;;;21.17;64.65;97979.31;5066301;28;20144;-31
2022/12/11 11:40:18;;;;;;;7.45;2.30;;;;;;;21.61;62.26;98000.41;5066417;28;20021;-29
2022/12/11 11:43:02;;;;;;;9.18;1.98;;;;;;;21.63;60.70;97974.50;5065041;28;20488;-29
2022/12/11 11:45:34;;;;;;;8.68;1.83;;;;;;;21.66;61.01;97967.63;5066057;28;20035;-32
2022/12/11 11:48:14;;;;;;;8.10;2.15;;;;;;;21.70;61.61;97978.56;5066272;28;20033;-29
2022/12/11 11:50:45;;;;;;;10.27;2.08;;;;;;;21.55;62.07;97977.34;5066489;28;20043;-28